createdAt,value
2023-01-04T00:01:21.671Z,102166.28
2023-01-04T00:03:48.817Z,102158.19
2023-01-04T00:06:17.858Z,102153.88
2023-01-04T00:08:44.876Z,102156.03
2023-01-04T00:11:18.791Z,102153.72
2023-01-04T00:13:49.239Z,102136.66
2023-01-04T00:16:23.432Z,102132.50
2023-01-04T00:18:52.563Z,102135.84
2023-01-04T00:21:29.410Z,102139.50
2023-01-04T00:23:59.999Z,102126.56
2023-01-04T00:26:33.787Z,102125.91
2023-01-04T00:29:07.056Z,102123.44
2023-01-04T00:31:35.410Z,102114.16
2023-01-04T00:34:04.679Z,102108.66
2023-01-04T00:36:33.391Z,102105.38
2023-01-04T00:39:08.440Z,102095.75
2023-01-04T00:41:58.853Z,102088.78
2023-01-04T00:44:28.101Z,102083.16
2023-01-04T00:46:55.613Z,102094.25
2023-01-04T00:49:22.427Z,102080.16
2023-01-04T00:51:49.702Z,102066.59
2023-01-04T00:54:17.786Z,102060.78
2023-01-04T00:56:45.482Z,102060.59
2023-01-04T00:59:14.817Z,102057.13
2023-01-04T01:01:43.099Z,102056.63
2023-01-04T01:04:14.418Z,102041.34
2023-01-04T01:06:41.631Z,102030.41
2023-01-04T01:09:09.280Z,102017.13
2023-01-04T01:11:38.403Z,102019.28
2023-01-04T01:14:06.540Z,102022.56
2023-01-04T01:19:20.502Z,102024.19
2023-01-04T01:21:47.621Z,102023.84
2023-01-04T01:24:19.599Z,102025.28
2023-01-04T01:26:46.462Z,102030.44
2023-01-04T01:29:13.678Z,102027.75
2023-01-04T01:31:41.365Z,102019.91
2023-01-04T01:34:09.211Z,102015.25
2023-01-04T01:36:36.848Z,102015.19
2023-01-04T01:39:05.852Z,102021.00
2023-01-04T01:41:34.606Z,102029.28
2023-01-04T01:44:27.411Z,102035.25
2023-01-04T01:46:54.841Z,102020.16
2023-01-04T01:49:25.890Z,102017.97
2023-01-04T01:51:56.644Z,102021.28
2023-01-04T01:54:33.145Z,102026.22
2023-01-04T01:57:04.808Z,102029.53
2023-01-04T01:59:34.596Z,102022.41
2023-01-04T02:02:01.964Z,102026.06
2023-01-04T02:04:30.769Z,102019.75
2023-01-04T02:06:59.636Z,102020.56
2023-01-04T02:09:26.485Z,102017.72
2023-01-04T02:11:53.632Z,102010.78
2023-01-04T02:14:27.293Z,102012.41
2023-01-04T02:17:50.354Z,102004.28
2023-01-04T02:21:00.127Z,101987.88
2023-01-04T02:24:01.390Z,101975.41
2023-01-04T02:26:59.655Z,101955.50
2023-01-04T02:30:05.329Z,101955.69
2023-01-04T02:32:59.750Z,101934.81
2023-01-04T02:36:27.481Z,101935.63
2023-01-04T02:39:12.756Z,101921.06
2023-01-04T02:41:51.491Z,101921.06
2023-01-04T02:44:46.379Z,101916.56
2023-01-04T02:47:16.366Z,101909.59
2023-01-04T02:50:05.110Z,101893.66
2023-01-04T02:52:33.196Z,101881.41
2023-01-04T02:55:02.218Z,101876.56
2023-01-04T02:57:47.595Z,101865.94
2023-01-04T03:00:26.631Z,101871.06
2023-01-04T03:03:35.967Z,101879.03
2023-01-04T03:06:39.358Z,101874.72
2023-01-04T03:09:15.430Z,101876.38
2023-01-04T03:12:20.531Z,101873.34
2023-01-04T03:14:53.399Z,101867.56
2023-01-04T03:17:24.446Z,101855.59
2023-01-04T03:19:55.132Z,101851.75
2023-01-04T03:23:01.177Z,101846.44
2023-01-04T03:25:58.529Z,101845.06
2023-01-04T03:28:49.562Z,101831.78
2023-01-04T03:32:26.514Z,101838.41
2023-01-04T03:35:12.911Z,101824.00
2023-01-04T03:38:56.880Z,101822.91
2023-01-04T03:41:50.500Z,101815.13
2023-01-04T03:45:10.079Z,101800.84
2023-01-04T03:48:22.817Z,101796.81
2023-01-04T03:50:57.442Z,101785.19
2023-01-04T03:53:26.031Z,101779.50
2023-01-04T03:55:54.408Z,101781.16
2023-01-04T03:58:22.153Z,101770.53
2023-01-04T04:00:49.213Z,101762.19
2023-01-04T04:03:16.418Z,101765.38
2023-01-04T04:06:04.370Z,101764.00
2023-01-04T04:08:31.269Z,101739.00
2023-01-04T04:11:21.993Z,101737.16
2023-01-04T04:13:50.655Z,101744.31
2023-01-04T04:16:18.210Z,101743.31
2023-01-04T04:18:45.214Z,101726.34
2023-01-04T04:21:12.239Z,101729.19
2023-01-04T04:23:39.088Z,101721.50
2023-01-04T04:26:06.913Z,101714.53
2023-01-04T04:28:34.184Z,101710.88
2023-01-04T04:31:01.636Z,101706.56
2023-01-04T04:33:28.659Z,101698.41
2023-01-04T04:35:56.344Z,101694.75
2023-01-04T04:38:23.186Z,101686.97
2023-01-04T04:41:08.659Z,101684.50
2023-01-04T04:43:36.020Z,101685.31
2023-01-04T04:46:03.872Z,101681.00
2023-01-04T04:48:31.207Z,101675.88
2023-01-04T04:50:58.195Z,101663.41
2023-01-04T04:53:25.570Z,101660.13
2023-01-04T04:55:53.862Z,101650.50
2023-01-04T04:58:22.310Z,101644.19
2023-01-04T05:00:49.403Z,101629.44
2023-01-04T05:03:16.413Z,101617.81
2023-01-04T05:05:43.641Z,101616.53
2023-01-04T05:08:10.613Z,101619.19
2023-01-04T05:10:38.796Z,101610.66
2023-01-04T05:13:08.943Z,101601.03
2023-01-04T05:15:40.100Z,101598.38
2023-01-04T05:18:09.140Z,101591.88
2023-01-04T05:20:36.033Z,101577.59
2023-01-04T05:23:03.613Z,101575.00
2023-01-04T05:25:30.680Z,101563.19
2023-01-04T05:27:57.723Z,101562.16
2023-01-04T05:30:43.530Z,101547.28
2023-01-04T05:33:10.933Z,101548.19
2023-01-04T05:35:37.914Z,101552.50
2023-01-04T05:38:05.237Z,101537.63
2023-01-04T05:40:32.371Z,101516.41
2023-01-04T05:42:59.334Z,101514.81
2023-01-04T05:45:27.556Z,101509.13
2023-01-04T05:47:55.008Z,101505.44
2023-01-04T05:50:23.761Z,101504.13
2023-01-04T05:52:51.386Z,101490.22
2023-01-04T05:55:19.372Z,101478.59
2023-01-04T05:57:46.879Z,101474.53
2023-01-04T06:00:14.824Z,101464.34
2023-01-04T06:02:43.279Z,101472.75
2023-01-04T06:05:11.760Z,101461.53
2023-01-04T06:07:40.799Z,101463.84
2023-01-04T06:10:10.239Z,101460.34
2023-01-04T06:12:38.367Z,101452.41
2023-01-04T06:15:06.757Z,101445.47
2023-01-04T06:17:34.926Z,101445.69
2023-01-04T06:20:02.798Z,101443.63
2023-01-04T06:22:30.225Z,101431.78
2023-01-04T06:24:57.138Z,101430.59
2023-01-04T06:27:24.131Z,101422.78
2023-01-04T06:29:51.773Z,101425.50
2023-01-04T06:32:18.863Z,101413.44
2023-01-04T06:34:45.906Z,101406.91
2023-01-04T06:37:12.891Z,101402.19
2023-01-04T06:39:40.225Z,101404.47
2023-01-04T06:42:27.082Z,101397.50
2023-01-04T06:44:54.108Z,101379.50
2023-01-04T06:47:20.947Z,101383.59
2023-01-04T06:49:47.995Z,101374.19
2023-01-04T06:52:15.514Z,101369.94
2023-01-04T06:54:42.483Z,101373.03
2023-01-04T06:57:09.523Z,101363.41
2023-01-04T06:59:36.853Z,101364.44
2023-01-04T07:02:04.254Z,101358.94
2023-01-04T07:04:31.202Z,101353.00
2023-01-04T07:06:58.433Z,101354.22
2023-01-04T07:09:25.888Z,101337.00
2023-01-04T07:11:52.871Z,101342.13
2023-01-04T07:14:20.665Z,101331.88
2023-01-04T07:16:47.574Z,101331.88
2023-01-04T07:19:15.261Z,101327.38
2023-01-04T07:21:42.393Z,101330.44
2023-01-04T07:24:09.528Z,101308.94
2023-01-04T07:26:37.024Z,101300.91
2023-01-04T07:29:19.434Z,101303.16
2023-01-04T07:31:48.535Z,101303.56
2023-01-04T07:34:17.690Z,101295.53
2023-01-04T07:36:45.557Z,101300.28
2023-01-04T07:39:12.945Z,101288.19
2023-01-04T07:41:40.894Z,101291.69
2023-01-04T07:44:09.960Z,101290.25
2023-01-04T07:46:39.433Z,101288.81
2023-01-04T07:49:11.564Z,101285.13
2023-01-04T07:51:41.966Z,101276.72
2023-01-04T07:54:12.827Z,101271.19
2023-01-04T07:56:40.044Z,101267.31
2023-01-04T07:59:08.804Z,101255.00
2023-01-04T08:01:38.875Z,101251.13
2023-01-04T08:04:08.171Z,101254.81
2023-01-04T08:06:37.085Z,101233.72
2023-01-04T08:09:05.563Z,101247.66
2023-01-04T08:11:33.648Z,101228.41
2023-01-04T08:14:00.915Z,101230.66
2023-01-04T08:16:37.088Z,101204.63
2023-01-04T08:19:14.848Z,101203.00
2023-01-04T08:21:42.391Z,101196.03
2023-01-04T08:24:12.454Z,101195.63
2023-01-04T08:26:39.729Z,101194.81
2023-01-04T08:29:06.925Z,101198.91
2023-01-04T08:31:34.417Z,101183.34
2023-01-04T08:34:04.964Z,101181.28
2023-01-04T08:36:35.888Z,101186.19
2023-01-04T08:39:05.986Z,101183.13
2023-01-04T08:44:37.615Z,101188.06
2023-01-04T08:47:05.110Z,101191.13
2023-01-04T08:49:32.215Z,101173.69
2023-01-04T08:51:59.307Z,101172.66
2023-01-04T08:54:26.605Z,101182.50
2023-01-04T08:56:53.541Z,101172.66
2023-01-04T08:59:20.647Z,101169.78
2023-01-04T09:01:47.877Z,101164.06
2023-01-04T09:04:15.241Z,101187.19
2023-01-04T09:06:42.635Z,101168.13
2023-01-04T09:09:09.868Z,101157.88
2023-01-04T09:11:38.775Z,101178.16
2023-01-04T09:14:09.454Z,101162.38
2023-01-04T09:16:38.460Z,101173.03
2023-01-04T09:19:06.314Z,101168.50
2023-01-04T09:21:33.581Z,101164.59
2023-01-04T09:24:01.000Z,101164.22
2023-01-04T09:26:28.281Z,101155.19
2023-01-04T09:28:56.635Z,101151.28
2023-01-04T09:31:29.101Z,101169.31
2023-01-04T09:34:15.307Z,101151.25
2023-01-04T09:36:45.211Z,101127.91
2023-01-04T09:39:20.837Z,101128.50
2023-01-04T09:41:59.271Z,101120.91
2023-01-04T09:45:21.155Z,101127.22
2023-01-04T09:47:37.757Z,101091.78
2023-01-04T09:50:22.143Z,101097.72
2023-01-04T09:53:00.143Z,101103.66
2023-01-04T09:55:41.416Z,101086.44
2023-01-04T09:58:41.317Z,101075.78
2023-01-04T10:01:19.065Z,101069.63
2023-01-04T10:03:59.458Z,101061.19
2023-01-04T10:06:33.282Z,101059.34
2023-01-04T10:09:07.028Z,101071.00
2023-01-04T10:12:16.404Z,101059.09
2023-01-04T10:14:59.056Z,101051.94
2023-01-04T10:21:34.957Z,101041.28
2023-01-04T10:24:34.421Z,101024.06
2023-01-04T10:27:46.071Z,101020.34
2023-01-04T10:30:42.889Z,101015.41
2023-01-04T10:33:22.208Z,100996.31
2023-01-04T10:35:50.405Z,101012.91
2023-01-04T10:38:28.287Z,100978.03
2023-01-04T10:41:00.117Z,100984.19
2023-01-04T10:44:10.046Z,100991.97
2023-01-04T10:46:49.816Z,100981.25
2023-01-04T10:49:26.414Z,100969.59
2023-01-04T10:52:02.498Z,100973.91
2023-01-04T10:54:55.509Z,100964.25
2023-01-04T10:57:46.597Z,100945.59
2023-01-04T11:00:32.306Z,100954.97
2023-01-04T11:03:16.145Z,100949.03
2023-01-04T11:05:51.633Z,100949.84
2023-01-04T11:08:31.567Z,100934.44
2023-01-04T11:11:21.200Z,100923.13
2023-01-04T11:13:49.609Z,100908.38
2023-01-04T11:16:16.592Z,100903.84
2023-01-04T11:18:47.169Z,100903.41
2023-01-04T11:21:17.221Z,100912.59
2023-01-04T11:23:44.396Z,100903.56
2023-01-04T11:26:27.503Z,100896.16
2023-01-04T11:29:07.267Z,100894.47
2023-01-04T11:31:43.649Z,100881.56
2023-01-04T11:34:10.567Z,100887.13
2023-01-04T11:36:46.810Z,100887.66
2023-01-04T11:39:16.643Z,100884.75
2023-01-04T11:42:00.740Z,100884.53
2023-01-04T11:44:34.665Z,100876.75
2023-01-04T11:47:24.260Z,100871.34
2023-01-04T11:49:52.631Z,100872.16
2023-01-04T11:52:31.922Z,100867.97
2023-01-04T11:55:22.489Z,100856.94
2023-01-04T11:58:12.100Z,100859.38
2023-01-04T12:00:56.973Z,100838.84
2023-01-04T12:03:31.303Z,100852.31
2023-01-04T12:05:59.064Z,100834.59
2023-01-04T12:08:35.064Z,100833.97
2023-01-04T12:11:05.033Z,100820.63
2023-01-04T12:13:33.897Z,100821.66
2023-01-04T12:16:07.400Z,100814.00
2023-01-04T12:18:43.710Z,100822.97
2023-01-04T12:21:19.636Z,100820.91
2023-01-04T12:23:47.244Z,100815.78
2023-01-04T12:26:15.013Z,100814.66
2023-01-04T12:28:46.462Z,100805.81
2023-01-04T12:31:20.460Z,100801.22
2023-01-04T12:34:14.373Z,100799.72
2023-01-04T12:37:05.578Z,100794.59
2023-01-04T12:39:43.970Z,100784.72
2023-01-04T12:42:19.101Z,100778.13
2023-01-04T12:44:52.071Z,100772.91
2023-01-04T12:47:37.649Z,100771.75
2023-01-04T12:50:19.728Z,100757.34
2023-01-04T12:53:34.696Z,100775.81
2023-01-04T12:56:02.374Z,100765.59
2023-01-04T12:59:23.726Z,100749.56
2023-01-04T13:01:29.021Z,100745.72
2023-01-04T13:04:39.930Z,100736.56
2023-01-04T13:07:17.242Z,100738.19
2023-01-04T13:09:57.993Z,100749.47
2023-01-04T13:12:58.824Z,100745.63
2023-01-04T13:15:46.737Z,100733.91
2023-01-04T13:18:50.914Z,100724.72
2023-01-04T13:21:18.010Z,100719.25
2023-01-04T13:23:52.150Z,100729.47
2023-01-04T13:26:43.284Z,100708.47
2023-01-04T13:29:28.373Z,100707.19
2023-01-04T13:32:23.776Z,100723.81
2023-01-04T13:35:13.936Z,100706.97
2023-01-04T13:37:45.916Z,100702.31
2023-01-04T13:40:24.808Z,100695.47
2023-01-04T13:43:48.794Z,100695.81
2023-01-04T13:46:20.346Z,100696.41
2023-01-04T13:48:52.236Z,100701.53
2023-01-04T13:51:45.600Z,100702.56
2023-01-04T13:54:23.324Z,100683.88
2023-01-04T13:56:55.647Z,100691.53
2023-01-04T13:59:23.351Z,100692.47
2023-01-04T14:01:51.111Z,100667.75
2023-01-04T14:04:28.938Z,100672.38
2023-01-04T14:06:59.948Z,100683.06
2023-01-04T14:09:36.913Z,100679.34
2023-01-04T14:12:20.789Z,100689.56
2023-01-04T14:14:58.054Z,100683.19
2023-01-04T14:17:53.283Z,100666.59
2023-01-04T14:20:20.601Z,100669.94
2023-01-04T14:22:47.491Z,100661.94
2023-01-04T14:25:48.288Z,100671.94
2023-01-04T14:28:30.327Z,100668.56
2023-01-04T14:31:06.755Z,100656.00
2023-01-04T14:33:38.807Z,100662.75
2023-01-04T14:36:44.356Z,100655.09
2023-01-04T14:39:19.526Z,100656.38
2023-01-04T14:41:49.441Z,100640.44
2023-01-04T14:44:20.567Z,100659.03
2023-01-04T14:46:54.493Z,100639.50
2023-01-04T14:49:22.619Z,100665.19
2023-01-04T14:51:51.750Z,100637.75
2023-01-04T14:54:24.622Z,100656.63
2023-01-04T14:56:58.126Z,100626.75
2023-01-04T14:59:26.515Z,100631.50
2023-01-04T15:01:55.250Z,100618.03
2023-01-04T15:04:22.593Z,100620.47
2023-01-04T15:06:59.248Z,100620.56
2023-01-04T15:09:27.745Z,100624.88
2023-01-04T15:11:55.349Z,100617.91
2023-01-04T15:14:23.267Z,100612.31
2023-01-04T15:16:50.552Z,100605.09
2023-01-04T15:19:17.648Z,100624.50
2023-01-04T15:21:45.048Z,100604.75
2023-01-04T15:24:12.206Z,100624.38
2023-01-04T15:26:40.522Z,100597.06
2023-01-04T15:29:08.845Z,100604.59
2023-01-04T15:31:39.664Z,100604.94
2023-01-04T15:34:10.183Z,100610.53
2023-01-04T15:36:40.604Z,100591.56
2023-01-04T15:39:11.237Z,100591.09
2023-01-04T15:41:56.924Z,100591.28
2023-01-04T15:44:24.859Z,100576.19
2023-01-04T15:46:53.542Z,100579.69
2023-01-04T15:49:20.862Z,100580.72
2023-01-04T15:51:47.815Z,100583.16
2023-01-04T15:54:14.908Z,100560.22
2023-01-04T15:56:41.913Z,100555.13
2023-01-04T15:59:09.293Z,100549.88
2023-01-04T16:01:36.357Z,100553.59
2023-01-04T16:04:06.851Z,100543.31
2023-01-04T16:06:34.665Z,100551.09
2023-01-04T16:09:02.241Z,100547.38
2023-01-04T16:11:29.961Z,100549.22
2023-01-04T16:13:57.383Z,100539.44
2023-01-04T16:16:27.887Z,100542.69
2023-01-04T16:18:57.179Z,100531.72
2023-01-04T16:21:29.419Z,100520.78
2023-01-04T16:24:06.847Z,100514.13
2023-01-04T16:26:36.875Z,100527.63
2023-01-04T16:29:04.445Z,100553.59
2023-01-04T16:31:36.976Z,100511.56
2023-01-04T16:34:04.976Z,100514.94
2023-01-04T16:36:32.360Z,100512.28
2023-01-04T16:38:59.431Z,100518.09
2023-01-04T16:41:26.362Z,100492.72
2023-01-04T16:43:55.847Z,100511.56
2023-01-04T16:46:32.097Z,100496.09
2023-01-04T16:49:10.383Z,100495.84
2023-01-04T16:51:39.953Z,100487.91
2023-01-04T16:54:12.410Z,100470.22
2023-01-04T16:56:41.001Z,100475.31
2023-01-04T16:59:08.789Z,100471.09
2023-01-04T17:01:44.208Z,100469.25
2023-01-04T17:04:15.909Z,100458.38
2023-01-04T17:06:45.695Z,100458.59
2023-01-04T17:09:17.023Z,100459.25
2023-01-04T17:12:45.479Z,100454.13
2023-01-04T17:14:43.966Z,100452.75
2023-01-04T17:17:11.135Z,100460.88
2023-01-04T17:19:38.140Z,100454.84
2023-01-04T17:22:05.458Z,100441.78
2023-01-04T17:24:32.512Z,100445.03
2023-01-04T17:26:59.401Z,100437.31
2023-01-04T17:29:26.401Z,100453.94
2023-01-04T17:31:53.355Z,100436.88
2023-01-04T17:34:23.327Z,100412.53
2023-01-04T17:36:50.800Z,100427.59
2023-01-04T17:39:20.527Z,100403.81
2023-01-04T17:41:47.564Z,100399.50
2023-01-04T17:44:14.435Z,100401.38
2023-01-04T17:46:41.587Z,100412.16
2023-01-04T17:49:22.497Z,100420.81
2023-01-04T17:51:52.649Z,100391.91
2023-01-04T17:54:22.927Z,100391.91
2023-01-04T17:56:50.324Z,100373.69
2023-01-04T17:59:17.285Z,100397.91
2023-01-04T18:01:44.471Z,100409.09
2023-01-04T18:04:11.643Z,100383.13
2023-01-04T18:06:39.630Z,100390.97
2023-01-04T18:09:08.286Z,100385.94
2023-01-04T18:11:36.247Z,100370.41
2023-01-04T18:14:06.222Z,100359.44
2023-01-04T18:16:56.675Z,100387.84
2023-01-04T18:19:30.399Z,100392.91
2023-01-04T18:21:58.551Z,100387.13
2023-01-04T18:24:37.955Z,100377.28
2023-01-04T18:27:25.061Z,100386.69
2023-01-04T18:29:53.824Z,100405.13
2023-01-04T18:32:22.108Z,100401.44
2023-01-04T18:34:49.164Z,100366.41
2023-01-04T18:37:18.605Z,100371.19
2023-01-04T18:39:47.188Z,100381.41
2023-01-04T18:42:14.388Z,100393.50
2023-01-04T18:44:47.972Z,100380.41
2023-01-04T18:47:21.227Z,100385.00
2023-01-04T18:49:49.785Z,100368.13
2023-01-04T18:52:17.729Z,100369.19
2023-01-04T18:54:45.143Z,100368.66
2023-01-04T18:57:12.235Z,100366.78
2023-01-04T18:59:40.550Z,100374.88
2023-01-04T19:02:07.679Z,100351.56
2023-01-04T19:04:36.706Z,100332.53
2023-01-04T19:07:03.637Z,100325.81
2023-01-04T19:09:30.847Z,100336.03
2023-01-04T19:11:57.912Z,100344.88
2023-01-04T19:14:24.939Z,100344.63
2023-01-04T19:16:53.364Z,100340.56
2023-01-04T19:19:21.008Z,100344.38
2023-01-04T19:21:48.262Z,100347.84
2023-01-04T19:24:15.240Z,100332.31
2023-01-04T19:26:42.624Z,100326.69
2023-01-04T19:29:10.234Z,100333.09
2023-01-04T19:31:37.437Z,100331.47
2023-01-04T19:34:04.777Z,100329.88
2023-01-04T19:36:31.676Z,100323.47
2023-01-04T19:38:59.010Z,100330.44
2023-01-04T19:41:33.909Z,100334.44
2023-01-04T19:44:14.351Z,100330.75
2023-01-04T19:46:41.740Z,100331.00
2023-01-04T19:49:14.852Z,100316.22
2023-01-04T19:51:47.177Z,100317.25
2023-01-04T19:54:18.566Z,100317.25
2023-01-04T19:56:50.457Z,100319.38
2023-01-04T19:59:17.900Z,100323.16
2023-01-04T20:01:45.218Z,100314.59
2023-01-04T20:04:13.846Z,100300.41
2023-01-04T20:06:40.839Z,100299.28
2023-01-04T20:09:07.803Z,100293.91
2023-01-04T20:11:36.335Z,100305.78
2023-01-04T20:14:03.450Z,100288.06
2023-01-04T20:16:30.855Z,100294.47
2023-01-04T20:18:58.207Z,100265.00
2023-01-04T20:21:25.938Z,100300.94
2023-01-04T20:23:53.000Z,100278.94
2023-01-04T20:26:20.084Z,100275.44
2023-01-04T20:28:48.557Z,100296.69
2023-01-04T20:31:18.152Z,100283.06
2023-01-04T20:33:46.111Z,100284.13
2023-01-04T20:36:20.023Z,100274.22
2023-01-04T20:38:48.377Z,100283.38
2023-01-04T20:41:22.527Z,100269.69
2023-01-04T20:43:50.705Z,100249.56
2023-01-04T20:46:32.621Z,100255.19
2023-01-04T20:49:00.962Z,100287.41
2023-01-04T20:51:30.011Z,100272.44
2023-01-04T20:53:59.709Z,100282.63
2023-01-04T20:56:30.449Z,100273.28
2023-01-04T20:58:57.533Z,100281.34
2023-01-04T21:01:25.470Z,100270.09
2023-01-04T21:03:52.753Z,100257.22
2023-01-04T21:06:20.009Z,100257.75
2023-01-04T21:08:47.526Z,100262.91
2023-01-04T21:11:14.873Z,100272.31
2023-01-04T21:13:42.317Z,100278.75
2023-01-04T21:16:10.161Z,100269.91
2023-01-04T21:18:38.049Z,100281.22
2023-01-04T21:21:13.825Z,100280.94
2023-01-04T21:23:43.392Z,100276.69
2023-01-04T21:26:16.736Z,100265.69
2023-01-04T21:28:44.854Z,100269.47
2023-01-04T21:31:15.216Z,100270.53
2023-01-04T21:33:46.089Z,100271.63
2023-01-04T21:36:17.892Z,100267.28
2023-01-04T21:38:48.489Z,100264.00
2023-01-04T21:41:15.834Z,100263.94
2023-01-04T21:43:43.191Z,100281.34
2023-01-04T21:46:15.695Z,100280.94
2023-01-04T21:48:44.445Z,100283.53
2023-01-04T21:51:13.061Z,100271.84
2023-01-04T21:53:41.349Z,100254.91
2023-01-04T21:56:14.906Z,100269.34
2023-01-04T21:58:42.412Z,100268.44
2023-01-04T22:01:16.582Z,100273.44
2023-01-04T22:03:43.741Z,100280.09
2023-01-04T22:06:13.314Z,100277.94
2023-01-04T22:08:43.512Z,100272.03
2023-01-04T22:11:11.489Z,100281.13
2023-01-04T22:13:39.244Z,100272.22
2023-01-04T22:16:13.315Z,100277.34
2023-01-04T22:18:40.326Z,100271.63
2023-01-04T22:21:13.816Z,100264.66
2023-01-04T22:23:40.811Z,100255.81
2023-01-04T22:26:08.310Z,100251.53
2023-01-04T22:28:37.308Z,100241.63
2023-01-04T22:31:08.728Z,100269.78
2023-01-04T22:33:36.862Z,100254.28
2023-01-04T22:36:19.490Z,100258.31
2023-01-04T22:38:50.167Z,100295.34
2023-01-04T22:41:19.156Z,100280.91
2023-01-04T22:43:47.030Z,100283.13
2023-01-04T22:46:17.873Z,100278.19
2023-01-04T22:48:45.792Z,100280.38
2023-01-04T22:51:16.499Z,100266.16
2023-01-04T22:53:44.552Z,100240.13
2023-01-04T22:56:20.365Z,100260.72
2023-01-04T22:58:54.295Z,100267.09
2023-01-04T23:01:31.398Z,100263.56
2023-01-04T23:04:00.474Z,100255.47
2023-01-04T23:06:29.545Z,100267.50
2023-01-04T23:08:59.201Z,100276.34
2023-01-04T23:11:28.029Z,100273.91
2023-01-04T23:13:55.822Z,100269.38
2023-01-04T23:16:29.557Z,100268.06
2023-01-04T23:18:59.073Z,100251.19
2023-01-04T23:21:25.937Z,100253.59
2023-01-04T23:23:52.940Z,100248.81
2023-01-04T23:26:23.501Z,100248.25
2023-01-04T23:28:50.636Z,100241.53
2023-01-04T23:31:22.628Z,100243.94
2023-01-04T23:33:57.033Z,100227.06
2023-01-04T23:36:29.105Z,100229.50
2023-01-04T23:38:59.573Z,100235.59
2023-01-04T23:41:46.213Z,100235.59
2023-01-04T23:44:24.864Z,100220.84
2023-01-04T23:46:55.986Z,100235.88
2023-01-04T23:49:25.024Z,100238.53
2023-01-04T23:51:52.953Z,100244.97
2023-01-04T23:54:20.744Z,100246.03
2023-01-04T23:56:47.877Z,100239.00
2023-01-04T23:59:14.906Z,100240.06
